Time;durP1;ratioP1;P1;durP2;ratioP2;P2;SDS_P1;SDS_P2;PMS_P1;PMS_P2;Temp;Humidity;BMP_temperature;BMP_pressure;BME280_temperature;BME280_humidity;BME280_pressure;Samples;Min_cycle;Max_cycle;Signal;HPM_P1;HPM_P2
2021/08/13 00:01:42;;;;;;;;;0.00;0.00;;;;;22.05;59.54;101736.09;6089914;23;45239;-82
2021/08/13 00:04:08;;;;;;;;;0.00;0.00;;;;;21.86;59.58;101717.97;6090075;23;45364;-84
2021/08/13 00:06:33;;;;;;;;;0.00;0.00;;;;;21.95;59.29;101723.06;6089992;23;45460;-84
2021/08/13 00:08:59;;;;;;;;;2.00;0.00;;;;;22.05;59.30;101738.75;6089830;23;45274;-84
2021/08/13 00:11:24;;;;;;;;;0.00;0.00;;;;;21.75;59.30;101692.56;6089306;23;45280;-83
2021/08/13 00:13:49;;;;;;;;;0.00;0.00;;;;;21.96;59.03;101731.88;6089091;23;45333;-84
2021/08/13 00:16:15;;;;;;;;;0.00;0.00;;;;;21.96;59.02;101742.47;6088886;23;45364;-84
2021/08/13 00:18:40;;;;;;;;;0.50;0.00;;;;;21.88;59.42;101734.72;6089348;23;45226;-84
2021/08/13 00:21:05;;;;;;;;;0.00;0.00;;;;;21.86;58.94;101731.22;6089758;23;45379;-83
2021/08/13 00:23:31;;;;;;;;;0.00;0.00;;;;;21.80;58.91;101723.44;6089255;23;45375;-84
2021/08/13 00:25:56;;;;;;;;;0.00;0.00;;;;;21.90;58.63;101749.66;6089162;23;45307;-84
2021/08/13 00:28:21;;;;;;;;;0.00;0.00;;;;;21.95;58.96;101757.50;6089226;23;45361;-82
2021/08/13 00:30:47;;;;;;;;;1.00;0.00;;;;;21.88;58.98;101758.56;6089248;23;45341;-82
2021/08/13 00:33:12;;;;;;;;;0.00;0.00;;;;;21.56;58.19;101713.28;6089332;23;46022;-82
2021/08/13 00:35:37;;;;;;;;;0.00;0.00;;;;;21.82;58.50;101764.88;6088998;23;45277;-85
2021/08/13 00:38:03;;;;;;;;;1.00;0.00;;;;;21.78;59.07;101757.91;6089505;23;45254;-82
2021/08/13 00:40:28;;;;;;;;;0.75;0.00;;;;;21.76;58.88;101747.34;6089543;23;45240;-82
2021/08/13 00:42:53;;;;;;;;;0.00;0.00;;;;;21.87;58.46;101755.03;6088668;23;55991;-81
2021/08/13 00:45:19;;;;;;;;;0.00;0.00;;;;;21.84;58.30;101759.53;6088826;23;45202;-82
2021/08/13 00:47:44;;;;;;;;;0.75;0.75;;;;;21.63;58.92;101733.44;6088928;23;45327;-82
2021/08/13 00:50:11;;;;;;;;;0.00;0.00;;;;;21.48;58.61;101741.72;6087297;23;45576;-82
2021/08/13 00:52:38;;;;;;;;;0.00;0.00;;;;;21.47;58.82;101743.50;6088753;23;47168;-83
2021/08/13 00:55:04;;;;;;;;;1.00;1.00;;;;;21.29;58.71;101723.59;6086656;23;45388;-83
2021/08/13 00:57:30;;;;;;;;;0.00;0.00;;;;;21.44;58.86;101763.91;6089032;23;45421;-83
2021/08/13 00:59:55;;;;;;;;;0.00;0.00;;;;;21.13;59.07;101723.00;6088786;23;45251;-83
2021/08/13 01:02:21;;;;;;;;;0.00;0.00;;;;;21.24;59.42;101736.94;6088807;23;45278;-83
2021/08/13 01:04:46;;;;;;;;;2.00;0.00;;;;;21.16;59.21;101716.81;6089189;23;45190;-84
2021/08/13 01:07:12;;;;;;;;;0.00;0.00;;;;;21.50;59.00;101759.31;6089337;23;45254;-82
2021/08/13 01:09:38;;;;;;;;;0.00;0.00;;;;;21.27;58.85;101725.38;6089369;23;45305;-82
2021/08/13 01:12:16;;;;;;;;;0.00;0.00;;;;;21.49;59.10;101749.66;6088520;23;45328;-83
2021/08/13 01:15:07;;;;;;;;;0.00;0.00;;;;;21.57;58.92;101752.13;6086801;23;45384;-82
2021/08/13 01:17:48;;;;;;;;;0.00;0.00;;;;;21.63;59.08;101753.78;6088899;23;45353;-83
2021/08/13 01:20:16;;;;;;;;;0.00;0.00;;;;;21.70;58.78;101762.44;6087225;23;45333;-83
2021/08/13 01:22:48;;;;;;;;;0.00;0.00;;;;;21.65;58.92;101747.53;6086857;23;46367;-84
2021/08/13 01:25:18;;;;;;;;;0.00;0.00;;;;;21.69;58.30;101763.38;6089290;23;45348;-83
2021/08/13 01:27:47;;;;;;;;;0.00;0.00;;;;;21.69;58.32;101766.91;6088459;23;45364;-83
2021/08/13 01:30:16;;;;;;;;;0.00;0.00;;;;;21.71;58.68;101769.53;6087155;23;45313;-83
2021/08/13 01:33:00;;;;;;;;;0.00;0.00;;;;;21.71;58.56;101766.88;6088667;23;45971;-83
2021/08/13 01:35:29;;;;;;;;;0.00;0.00;;;;;21.23;58.09;101710.47;6088800;23;45328;-84
2021/08/13 01:38:01;;;;;;;;;0.00;0.00;;;;;21.32;58.39;101735.91;6089063;23;45321;-83
2021/08/13 01:40:28;;;;;;;;;0.00;0.00;;;;;21.07;58.62;101721.38;6087897;23;45704;-83
2021/08/13 01:42:55;;;;;;;;;0.00;0.00;;;;;20.95;59.05;101713.69;6087822;23;45525;-83
2021/08/13 01:45:27;;;;;;;;;0.50;0.50;;;;;21.12;59.16;101747.75;6088613;23;45231;-82
2021/08/13 01:47:53;;;;;;;;;0.00;0.00;;;;;21.17;59.38;101767.09;6088921;23;45246;-83
2021/08/13 01:50:19;;;;;;;;;0.00;0.00;;;;;20.84;59.31;101721.78;6088982;23;45296;-84
2021/08/13 01:52:46;;;;;;;;;0.75;0.75;;;;;20.98;59.42;101756.81;6088598;23;45357;-83
2021/08/13 01:55:13;;;;;;;;;0.00;0.00;;;;;20.85;59.67;101734.09;6088659;23;45255;-82
2021/08/13 01:57:39;;;;;;;;;0.75;0.75;;;;;21.02;59.77;101752.38;6088430;23;45349;-83
2021/08/13 02:00:06;;;;;;;;;0.00;0.00;;;;;21.06;59.40;101756.69;6088305;23;45385;-83
2021/08/13 02:02:34;;;;;;;;;0.00;0.00;;;;;20.95;59.42;101732.22;6088624;23;45673;-83
2021/08/13 02:05:02;;;;;;;;;0.00;0.00;;;;;20.71;59.51;101686.75;6088460;23;45243;-82
2021/08/13 02:07:29;;;;;;;;;0.00;0.00;;;;;21.12;59.14;101755.69;6090859;23;45405;-83
2021/08/13 02:09:55;;;;;;;;;0.00;0.00;;;;;20.82;59.32;101742.97;6090837;23;45369;-82
2021/08/13 02:12:20;;;;;;;;;0.00;0.00;;;;;20.91;59.80;101754.34;6089542;23;45416;-83
2021/08/13 02:14:46;;;;;;;;;0.00;0.00;;;;;20.82;59.85;101745.63;6089810;23;45291;-83
2021/08/13 02:17:17;;;;;;;;;1.00;1.00;;;;;20.64;59.68;101723.91;6090785;23;45373;-83
2021/08/13 02:19:52;;;;;;;;;0.00;0.00;;;;;20.79;59.37;101753.63;6092439;23;45408;-83
2021/08/13 02:22:17;;;;;;;;;0.00;0.00;;;;;20.61;59.43;101712.53;6090910;23;45976;-83
2021/08/13 02:24:43;;;;;;;;;1.00;0.00;;;;;20.85;59.38;101736.75;6090451;23;45264;-83
2021/08/13 02:27:09;;;;;;;;;1.25;1.00;;;;;20.87;59.29;101746.44;6090228;23;45271;-84
2021/08/13 02:29:35;;;;;;;;;2.00;0.00;;;;;20.91;59.29;101762.28;6090703;23;45282;-83
2021/08/13 02:32:00;;;;;;;;;0.00;0.00;;;;;20.83;59.35;101757.94;6090731;23;46090;-83
2021/08/13 02:34:25;;;;;;;;;0.00;0.00;;;;;20.49;59.71;101703.88;6090940;23;45253;-83
2021/08/13 02:36:58;;;;;;;;;0.00;0.00;;;;;20.77;59.84;101755.44;6091173;23;45283;-84
2021/08/13 02:39:39;;;;;;;;;0.00;0.00;;;;;20.90;59.49;101766.69;6090726;23;45419;-83
2021/08/13 02:42:06;;;;;;;;;0.00;0.00;;;;;20.74;59.90;101735.19;6090647;23;45544;-84
2021/08/13 02:44:35;;;;;;;;;0.00;0.00;;;;;20.77;58.93;101724.53;6090210;23;45406;-83
2021/08/13 02:47:06;;;;;;;;;0.00;0.00;;;;;20.96;59.28;101757.75;6090612;23;45360;-84
2021/08/13 02:49:32;;;;;;;;;0.00;0.00;;;;;20.99;59.25;101763.00;6090736;23;45481;-82
2021/08/13 02:52:04;;;;;;;;;0.00;0.00;;;;;20.84;59.26;101750.91;6090634;23;45468;-83
2021/08/13 02:54:32;;;;;;;;;1.00;0.00;;;;;20.93;58.24;101774.59;6088448;23;45255;-84
2021/08/13 02:56:57;;;;;;;;;0.00;0.00;;;;;20.75;58.35;101779.28;6090832;23;45384;-84
2021/08/13 02:59:27;;;;;;;;;0.00;0.00;;;;;20.72;58.71;101763.47;6090539;23;45337;-84
2021/08/13 03:01:55;;;;;;;;;0.00;0.00;;;;;20.67;59.47;101752.06;6090356;23;45458;-84
2021/08/13 03:04:21;;;;;;;;;0.00;0.00;;;;;20.84;59.21;101765.00;6090090;23;45290;-84
2021/08/13 03:06:49;;;;;;;;;0.00;0.00;;;;;20.90;59.02;101777.28;6090638;23;45324;-83
2021/08/13 03:09:14;;;;;;;;;1.00;0.00;;;;;20.96;59.20;101781.59;6090294;23;45241;-85
2021/08/13 03:11:42;;;;;;;;;0.00;0.00;;;;;20.97;59.45;101778.91;6090198;23;45437;-82
2021/08/13 03:14:08;;;;;;;;;0.25;0.00;;;;;20.92;59.78;101777.25;6087719;23;45285;-84
2021/08/13 03:16:35;;;;;;;;;1.50;0.50;;;;;20.60;58.92;101731.91;6089514;23;45337;-84
2021/08/13 03:19:01;;;;;;;;;1.00;0.00;;;;;20.54;59.47;101716.16;6087821;23;45424;-84
2021/08/13 03:21:27;;;;;;;;;0.00;0.00;;;;;20.45;59.40;101712.78;6089529;23;46803;-84
2021/08/13 03:23:53;;;;;;;;;0.00;0.00;;;;;20.78;59.14;101767.75;6089133;23;45380;-83
2021/08/13 03:26:19;;;;;;;;;2.00;0.25;;;;;20.77;59.52;101773.97;6089718;23;45307;-83
2021/08/13 03:28:46;;;;;;;;;4.50;0.00;;;;;20.37;59.48;101730.56;6089965;23;45423;-83
2021/08/13 03:31:49;;;;;;;;;0.50;0.50;;;;;20.46;59.69;101754.19;6087950;23;48001;-83
2021/08/13 03:34:16;;;;;;;;;0.75;0.00;;;;;20.43;59.68;101767.44;6089670;23;45338;-83
2021/08/13 03:36:43;;;;;;;;;0.00;0.00;;;;;20.44;59.60;101773.63;6087669;23;45252;-84
2021/08/13 03:39:10;;;;;;;;;0.00;0.00;;;;;20.45;59.83;101770.06;6086511;23;45324;-83
2021/08/13 03:41:36;;;;;;;;;0.00;0.00;;;;;20.35;59.61;101767.59;6087820;23;47091;-83
2021/08/13 03:44:02;;;;;;;;;1.00;0.00;;;;;20.33;59.89;101755.28;6088718;23;45578;-84
2021/08/13 03:46:27;;;;;;;;;0.00;0.00;;;;;20.10;59.84;101716.88;6089590;23;45342;-84
2021/08/13 03:48:53;;;;;;;;;0.00;0.00;;;;;20.30;59.67;101750.91;6089629;23;45459;-84
2021/08/13 03:51:18;;;;;;;;;0.00;0.00;;;;;19.79;59.64;101667.13;6088617;23;45257;-83
2021/08/13 03:53:45;;;;;;;;;0.75;0.75;;;;;20.32;59.25;101769.41;6088864;23;45308;-82
2021/08/13 03:56:10;;;;;;;;;0.00;0.00;;;;;19.94;59.59;101713.59;6087063;23;45453;-83
2021/08/13 03:58:35;;;;;;;;;0.00;0.00;;;;;20.30;59.43;101773.88;6088181;23;45373;-83
2021/08/13 04:01:01;;;;;;;;;0.25;0.25;;;;;20.08;59.91;101743.34;6089406;23;45262;-82
2021/08/13 04:03:26;;;;;;;;;0.00;0.00;;;;;20.28;59.79;101778.28;6089414;23;45333;-83
2021/08/13 04:05:51;;;;;;;;;0.50;0.00;;;;;20.08;59.29;101745.09;6089179;23;45290;-84
2021/08/13 04:08:16;;;;;;;;;0.25;0.00;;;;;20.10;60.15;101754.78;6089248;23;45297;-84
2021/08/13 04:10:42;;;;;;;;;0.00;0.00;;;;;20.32;59.71;101794.09;6089164;23;45332;-84
2021/08/13 04:13:07;;;;;;;;;1.25;1.00;;;;;20.28;59.57;101787.09;6088482;23;57663;-84
2021/08/13 04:15:33;;;;;;;;;0.00;0.00;;;;;19.71;59.32;101714.78;6088674;23;45259;-84
2021/08/13 04:17:59;;;;;;;;;1.25;0.00;;;;;20.17;59.71;101794.31;6090130;23;45420;-84
2021/08/13 04:20:24;;;;;;;;;0.00;0.00;;;;;20.18;59.60;101796.06;6088876;23;46236;-84
2021/08/13 04:22:49;;;;;;;;;0.00;0.00;;;;;20.13;59.74;101789.06;6088727;23;45293;-84
2021/08/13 04:25:15;;;;;;;;;0.00;0.00;;;;;20.15;59.54;101793.47;6089057;23;45301;-84
2021/08/13 04:27:40;;;;;;;;;0.00;0.00;;;;;20.13;59.67;101802.28;6089531;23;45518;-84
2021/08/13 04:30:06;;;;;;;;;0.00;0.00;;;;;20.09;59.44;101807.66;6088641;23;48422;-83
2021/08/13 04:32:36;;;;;;;;;0.00;0.00;;;;;20.03;59.85;101805.94;6088920;23;45265;-83
2021/08/13 04:35:02;;;;;;;;;0.00;0.00;;;;;19.48;60.24;101729.19;6088244;23;45364;-84
2021/08/13 04:37:27;;;;;;;;;0.00;0.00;;;;;19.93;59.89;101802.53;6088814;23;45194;-84
2021/08/13 04:39:52;;;;;;;;;0.00;0.00;;;;;19.87;59.74;101797.31;6086448;23;54871;-85
2021/08/13 04:42:18;;;;;;;;;0.00;0.00;;;;;19.77;60.16;101779.84;6086796;23;58917;-83
2021/08/13 04:44:43;;;;;;;;;0.00;0.00;;;;;19.45;60.39;101747.72;6088303;23;47660;-84
2021/08/13 04:47:08;;;;;;;;;0.00;0.00;;;;;19.73;60.59;101808.09;6089090;23;45390;-83
2021/08/13 04:49:34;;;;;;;;;0.00;0.00;;;;;19.69;60.20;101777.34;6088785;23;46274;-83
2021/08/13 04:51:59;;;;;;;;;0.25;0.00;;;;;19.75;60.06;101804.53;6088040;23;45363;-83
2021/08/13 04:54:24;;;;;;;;;0.00;0.00;;;;;19.66;60.09;101796.72;6088760;23;45269;-83
2021/08/13 04:56:50;;;;;;;;;0.00;0.00;;;;;19.47;60.20;101741.50;6088918;23;45222;-83
2021/08/13 04:59:15;;;;;;;;;0.00;0.00;;;;;19.84;60.10;101795.63;6088494;23;49298;-83
2021/08/13 05:01:40;;;;;;;;;0.00;0.00;;;;;19.62;60.21;101768.59;6086388;23;45272;-82
2021/08/13 05:04:07;;;;;;;;;0.00;0.00;;;;;19.94;60.14;101806.91;6089049;23;45355;-84
2021/08/13 05:06:32;;;;;;;;;0.00;0.00;;;;;19.74;59.99;101770.22;6088715;23;45307;-83
2021/08/13 05:08:58;;;;;;;;;0.00;0.00;;;;;20.01;59.75;101805.13;6088363;23;45497;-83
2021/08/13 05:11:23;;;;;;;;;0.00;0.00;;;;;19.99;59.85;101815.66;6088677;23;53414;-82
2021/08/13 05:13:48;;;;;;;;;0.00;0.00;;;;;19.55;59.63;101741.41;6086872;23;45247;-82
2021/08/13 05:16:14;;;;;;;;;0.00;0.00;;;;;19.97;59.83;101816.59;6089653;23;45398;-83
2021/08/13 05:18:39;;;;;;;;;1.00;1.00;;;;;19.65;59.71;101763.28;6088098;23;45385;-84
2021/08/13 05:21:06;;;;;;;;;0.00;0.00;;;;;19.94;59.84;101811.34;6088045;23;45285;-83
2021/08/13 05:23:31;;;;;;;;;0.00;0.00;;;;;20.23;59.42;101836.50;6088406;23;45381;-83
2021/08/13 05:25:59;;;;;;;;;0.00;0.00;;;;;20.02;59.60;101805.97;6088456;23;45402;-82
2021/08/13 05:28:24;;;;;;;;;0.00;0.00;;;;;20.33;59.13;101856.63;6088852;23;45388;-84
2021/08/13 05:30:50;;;;;;;;;0.00;0.00;;;;;19.61;59.21;101732.53;6087915;23;45334;-83
2021/08/13 05:33:15;;;;;;;;;0.00;0.00;;;;;20.02;58.98;101798.91;6088857;23;45335;-83
2021/08/13 05:35:40;;;;;;;;;0.75;0.50;;;;;20.43;58.74;101865.28;6088771;23;45144;-84
2021/08/13 05:38:06;;;;;;;;;0.00;0.00;;;;;20.28;58.73;101841.75;6088744;23;45954;-85
2021/08/13 05:40:31;;;;;;;;;0.00;0.00;;;;;20.51;58.81;101868.72;6089929;23;45453;-84
2021/08/13 05:42:57;;;;;;;;;0.00;0.00;;;;;20.57;58.39;101867.75;6092287;23;45242;-83
2021/08/13 05:45:22;;;;;;;;;0.00;0.00;;;;;20.61;57.87;101869.44;6092220;23;45302;-83
2021/08/13 05:47:48;;;;;;;;;0.00;0.00;;;;;20.60;58.45;101859.75;6091268;23;45265;-84
2021/08/13 05:50:16;;;;;;;;;0.00;0.00;;;;;20.59;57.89;101841.28;6091735;23;45340;-83
2021/08/13 05:52:41;;;;;;;;;0.00;0.00;;;;;20.50;57.94;101845.81;6091629;23;45513;-84
2021/08/13 05:55:07;;;;;;;;;0.00;0.00;;;;;20.46;57.94;101875.84;6090270;23;45509;-84
2021/08/13 05:57:33;;;;;;;;;0.00;0.00;;;;;20.35;58.40;101870.72;6089525;23;47097;-83
2021/08/13 05:59:58;;;;;;;;;0.00;0.00;;;;;20.54;58.35;101888.94;6088766;23;45340;-82
2021/08/13 06:02:24;;;;;;;;;0.75;0.00;;;;;20.24;58.34;101819.75;6090975;23;45193;-81
2021/08/13 06:04:49;;;;;;;;;2.00;0.00;;;;;20.57;57.69;101885.38;6090124;23;45311;-81
2021/08/13 06:07:14;;;;;;;;;0.00;0.00;;;;;20.64;58.01;101879.97;6091249;23;46193;-81
2021/08/13 06:09:40;;;;;;;;;2.00;0.00;;;;;20.65;57.47;101859.69;6091200;23;45258;-82
2021/08/13 06:12:05;;;;;;;;;0.00;0.00;;;;;20.70;57.27;101844.59;6090787;23;45214;-81
2021/08/13 06:14:32;;;;;;;;;0.00;0.00;;;;;20.81;57.32;101843.56;6091805;23;45405;-81
2021/08/13 06:16:59;;;;;;;;;0.00;0.00;;;;;20.91;57.30;101858.41;6090770;23;46277;-81
2021/08/13 06:19:25;;;;;;;;;0.25;0.25;;;;;21.16;56.95;101887.09;6090946;23;45389;-81
2021/08/13 06:21:50;;;;;;;;;0.00;0.00;;;;;21.23;56.53;101890.53;6091345;23;45274;-82
2021/08/13 06:24:16;;;;;;;;;0.00;0.00;;;;;21.10;56.21;101889.88;6091182;23;45308;-81
2021/08/13 06:26:41;;;;;;;;;0.00;0.00;;;;;20.88;56.80;101853.13;6089085;23;48104;-81
2021/08/13 06:29:06;;;;;;;;;0.00;0.00;;;;;21.01;56.72;101899.69;6090280;23;45768;-81
2021/08/13 06:31:32;;;;;;;;;0.50;0.50;;;;;20.90;56.49;101893.72;6090909;23;45259;-81
2021/08/13 06:33:57;;;;;;;;;0.00;0.00;;;;;20.73;56.89;101876.31;6091535;23;45623;-81
2021/08/13 06:36:22;;;;;;;;;0.00;0.00;;;;;20.92;56.41;101899.84;6090649;23;45778;-81
2021/08/13 06:38:48;;;;;;;;;0.00;0.00;;;;;20.86;56.21;101852.31;6090739;23;54466;-81
2021/08/13 06:41:13;;;;;;;;;0.00;0.00;;;;;21.25;55.75;101913.41;6090388;23;45261;-82
2021/08/13 06:43:38;;;;;;;;;0.75;0.00;;;;;21.24;55.79;101914.31;6091269;23;45356;-81
2021/08/13 06:46:04;;;;;;;;;0.00;0.00;;;;;21.30;55.50;101925.69;6088850;23;49178;-80
2021/08/13 06:48:29;;;;;;;;;0.00;0.00;;;;;21.23;55.74;101912.56;6090025;23;45288;-82
2021/08/13 06:50:54;;;;;;;;;0.50;0.00;;;;;21.17;55.75;101917.97;6088745;23;45380;-80
2021/08/13 06:53:20;;;;;;;;;0.00;0.00;;;;;20.93;55.17;101888.38;6090027;23;45211;-83
2021/08/13 06:55:45;;;;;;;;;0.00;0.00;;;;;20.62;55.21;101878.25;6089358;23;46335;-83
2021/08/13 06:58:10;;;;;;;;;0.00;0.00;;;;;20.49;55.28;101856.41;6089441;23;45380;-83
2021/08/13 07:00:36;;;;;;;;;0.00;0.00;;;;;20.89;55.13;101921.94;6088915;23;45478;-82
2021/08/13 07:03:02;;;;;;;;;0.00;0.00;;;;;20.36;55.53;101829.25;6089458;23;45372;-82
2021/08/13 07:05:28;;;;;;;;;0.50;0.00;;;;;20.83;56.00;101914.06;6087251;23;47118;-81
2021/08/13 07:07:53;;;;;;;;;0.00;0.00;;;;;20.93;56.11;101920.13;6087533;23;45562;-82
2021/08/13 07:10:18;;;;;;;;;0.00;0.00;;;;;20.99;55.61;101925.34;6088512;23;45376;-78
2021/08/13 07:12:44;;;;;;;;;0.00;0.00;;;;;20.98;56.13;101931.50;6089038;23;45234;-79
2021/08/13 07:15:11;;;;;;;;;0.25;0.00;;;;;20.64;55.82;101885.25;6088141;23;46144;-79
2021/08/13 07:17:37;;;;;;;;;0.00;0.00;;;;;20.77;55.79;101908.91;6086669;23;46086;-79
2021/08/13 07:20:04;;;;;;;;;0.00;0.00;;;;;20.81;56.15;101928.22;6086295;23;45323;-80
2021/08/13 07:22:32;;;;;;;;;0.00;0.00;;;;;20.97;56.17;101939.47;6088078;23;45295;-79
2021/08/13 07:24:57;;;;;;;;;0.00;0.00;;;;;21.10;56.08;101935.72;6088110;23;47443;-86
2021/08/13 07:27:22;;;;;;;;;0.00;0.00;;;;;21.19;55.97;101940.00;6086838;23;45953;-82
2021/08/13 07:29:47;;;;;;;;;0.00;0.00;;;;;20.99;55.56;101896.22;6088217;23;48309;-81
2021/08/13 07:32:13;;;;;;;;;0.00;0.00;;;;;21.34;55.97;101949.44;6088641;23;51476;-80
2021/08/13 07:34:38;;;;;;;;;0.50;0.50;;;;;21.42;55.68;101948.44;6087296;23;48086;-79
2021/08/13 07:37:03;;;;;;;;;0.00;0.00;;;;;20.92;55.58;101876.03;6089050;23;45350;-81
2021/08/13 07:39:29;;;;;;;;;0.00;0.00;;;;;21.61;55.62;101960.47;6088880;23;45289;-81
2021/08/13 07:41:54;;;;;;;;;1.50;0.50;;;;;21.50;54.67;101947.41;6089476;23;45384;-84
2021/08/13 07:44:19;;;;;;;;;0.00;0.00;;;;;21.33;54.83;101930.94;6085861;23;55648;-83
2021/08/13 07:46:45;;;;;;;;;0.75;0.00;;;;;21.50;55.01;101967.72;6086440;23;45322;-83
2021/08/13 07:49:10;;;;;;;;;0.00;0.00;;;;;21.54;55.14;101968.53;6089340;23;45373;-85
2021/08/13 07:51:36;;;;;;;;;0.00;0.00;;;;;21.55;55.27;101972.91;6089065;23;45306;-82
2021/08/13 07:54:01;;;;;;;;;0.00;0.00;;;;;21.06;54.98;101889.03;6088043;23;45987;-82
2021/08/13 07:56:27;;;;;;;;;0.00;0.00;;;;;21.61;55.63;101948.97;6088908;23;45487;-80
2021/08/13 07:58:52;;;;;;;;;0.00;0.00;;;;;21.88;55.00;101986.50;6087664;23;45733;-80
2021/08/13 08:01:17;;;;;;;;;1.50;0.00;;;;;21.80;54.74;101983.13;6086145;23;49568;-80
2021/08/13 08:03:42;;;;;;;;;0.00;0.00;;;;;21.82;54.72;101997.19;6087521;23;52583;-84
2021/08/13 08:06:08;;;;;;;;;0.00;0.00;;;;;21.84;54.89;102003.38;6088369;23;45173;-82
2021/08/13 08:08:33;;;;;;;;;0.00;0.00;;;;;21.71;54.58;101982.34;6088241;23;45231;-81
2021/08/13 08:10:59;;;;;;;;;0.00;0.00;;;;;21.87;54.70;102013.91;6080132;23;45287;-80
2021/08/13 08:13:24;;;;;;;;;0.00;0.00;;;;;21.68;54.79;101974.44;6084694;23;45304;-80
2021/08/13 08:15:50;;;;;;;;;0.00;0.00;;;;;21.93;54.37;102007.63;6085732;23;45333;-79
2021/08/13 08:18:19;;;;;;;;;0.00;0.00;;;;;22.01;54.24;102000.38;6087882;23;45310;-81
2021/08/13 08:20:45;;;;;;;;;0.00;0.00;;;;;22.33;54.27;102017.41;6087963;23;45300;-81
2021/08/13 08:23:10;;;;;;;;;0.00;0.00;;;;;22.36;54.07;101988.16;6087330;23;45521;-82
2021/08/13 08:25:36;;;;;;;;;0.00;0.00;;;;;22.73;53.49;102018.34;6088122;23;45432;-83
2021/08/13 08:28:01;;;;;;;;;0.00;0.00;;;;;22.85;52.91;102016.34;6093361;23;45316;-86
2021/08/13 08:30:27;;;;;;;;;0.75;0.00;;;;;22.77;53.16;102009.44;6090791;23;45690;-85
2021/08/13 08:32:52;;;;;;;;;1.00;0.00;;;;;22.72;52.15;101999.84;6087961;23;46013;-81
2021/08/13 08:35:17;;;;;;;;;0.00;0.00;;;;;22.80;52.00;102018.22;6087227;23;45312;-80
2021/08/13 08:37:54;;;;;;;;;0.00;0.00;;;;;22.60;51.78;102016.91;6086181;23;45492;-83
2021/08/13 08:40:30;;;;;;;;;0.00;0.00;;;;;22.44;51.78;102024.25;6087563;23;45307;-80
2021/08/13 08:42:59;;;;;;;;;0.00;0.00;;;;;22.39;51.93;102024.38;6086837;23;47017;-82
2021/08/13 08:45:26;;;;;;;;;0.00;0.00;;;;;22.49;51.86;102020.63;6086123;23;45333;-79
2021/08/13 08:47:53;;;;;;;;;0.00;0.00;;;;;22.47;52.05;101993.25;6086591;23;45318;-83
2021/08/13 08:50:21;;;;;;;;;0.00;0.00;;;;;22.82;51.94;102019.97;6085220;23;45312;-79
2021/08/13 08:52:48;;;;;;;;;0.00;0.00;;;;;22.94;50.86;102026.75;6086223;23;45903;-78
2021/08/13 08:55:13;;;;;;;;;0.00;0.00;;;;;22.98;51.00;102024.91;6086454;23;45415;-79
2021/08/13 08:57:40;;;;;;;;;0.00;0.00;;;;;23.02;51.01;102005.31;6085716;23;45340;-78
2021/08/13 09:00:07;;;;;;;;;0.25;0.00;;;;;23.25;50.02;102006.56;6087618;23;45386;-79
2021/08/13 09:02:33;;;;;;;;;1.00;1.00;;;;;23.49;50.23;102001.56;6085311;23;45493;-79
2021/08/13 09:04:59;;;;;;;;;0.00;0.00;;;;;23.73;50.42;102002.69;6086885;23;45349;-80
2021/08/13 09:07:26;;;;;;;;;0.25;0.00;;;;;23.93;49.70;102001.28;6086605;23;45324;-81
2021/08/13 09:09:51;;;;;;;;;0.00;0.00;;;;;24.02;48.90;101989.50;6087609;23;45332;-80
2021/08/13 09:12:17;;;;;;;;;0.75;0.00;;;;;23.94;48.76;101968.44;6086268;23;46214;-83
2021/08/13 09:14:42;;;;;;;;;0.00;0.00;;;;;24.10;49.41;101976.00;6086202;23;45301;-80
2021/08/13 09:17:08;;;;;;;;;0.00;0.00;;;;;24.17;48.95;102005.03;6086049;23;45553;-77
2021/08/13 09:19:48;;;;;;;;;0.00;0.00;;;;;24.15;48.44;101998.91;6084604;23;45819;-78
2021/08/13 09:22:19;;;;;;;;;0.00;0.00;;;;;24.27;48.63;102008.31;6086328;23;46057;-79
2021/08/13 09:24:48;;;;;;;;;0.00;0.00;;;;;24.20;48.34;102000.56;6086120;23;45593;-89
2021/08/13 09:27:17;;;;;;;;;0.75;0.00;;;;;24.26;48.26;102017.22;6085912;23;45246;-80
2021/08/13 09:30:06;;;;;;;;;0.00;0.00;;;;;24.35;47.79;102016.06;6082225;23;45316;-81
2021/08/13 09:32:32;;;;;;;;;0.00;0.00;;;;;24.14;48.20;102013.09;6085444;23;46700;-79
2021/08/13 09:34:57;;;;;;;;;0.00;0.00;;;;;24.07;48.49;102010.66;6085207;23;45320;-83
2021/08/13 09:37:23;;;;;;;;;0.00;0.00;;;;;24.09;48.07;101995.50;6084724;23;45235;-86
2021/08/13 09:39:58;;;;;;;;;0.00;0.00;;;;;24.25;47.63;102007.50;6084655;23;45294;-79
2021/08/13 09:42:35;;;;;;;;;0.00;0.00;;;;;24.13;48.01;102002.53;6085874;23;45847;-79
2021/08/13 09:45:03;;;;;;;;;0.00;0.00;;;;;24.10;47.51;101986.63;6086042;23;45273;-79
2021/08/13 09:47:44;;;;;;;;;0.00;0.00;;;;;24.23;48.37;102006.69;6083965;23;45295;-77
2021/08/13 09:50:11;;;;;;;;;0.00;0.00;;;;;24.28;47.80;101998.53;6086194;23;45481;-79
2021/08/13 09:52:37;;;;;;;;;0.00;0.00;;;;;24.23;47.95;101979.19;6088211;23;45445;-81
2021/08/13 09:55:08;;;;;;;;;0.00;0.00;;;;;24.34;47.78;102001.03;6087588;23;45674;-78
2021/08/13 09:57:47;;;;;;;;;0.00;0.00;;;;;24.45;47.81;102000.72;6088165;23;45697;-79
2021/08/13 10:00:15;;;;;;;;;0.00;0.00;;;;;24.32;47.55;101951.44;6088816;23;45344;-79
2021/08/13 10:02:41;;;;;;;;;0.00;0.00;;;;;24.71;47.32;102000.84;6084646;23;46096;-79
2021/08/13 10:05:17;;;;;;;;;0.00;0.00;;;;;24.74;47.12;102009.59;6085823;23;45361;-79
2021/08/13 10:07:51;;;;;;;;;0.00;0.00;;;;;24.66;46.96;101987.66;6083956;23;45670;-83
2021/08/13 10:10:23;;;;;;;;;0.00;0.00;;;;;24.77;46.57;101996.19;6084954;23;45273;-80
2021/08/13 10:12:48;;;;;;;;;0.25;0.00;;;;;24.87;46.65;101993.25;6085491;23;46517;-79
2021/08/13 10:15:44;;;;;;;;;0.00;0.00;;;;;24.87;46.77;101979.94;6086110;23;45498;-79
2021/08/13 10:18:12;;;;;;;;;0.00;0.00;;;;;25.07;47.11;101991.72;6086832;23;45802;-80
2021/08/13 10:20:43;;;;;;;;;0.00;0.00;;;;;25.21;46.95;101992.16;6085777;23;45326;-79
2021/08/13 10:23:10;;;;;;;;;0.00;0.00;;;;;25.19;45.90;101975.34;6085690;23;45416;-78
2021/08/13 10:25:36;;;;;;;;;0.00;0.00;;;;;25.31;46.36;101995.38;6084688;23;45475;-79
2021/08/13 10:28:02;;;;;;;;;0.00;0.00;;;;;25.22;45.70;101967.25;6087461;23;45427;-79
2021/08/13 10:30:27;;;;;;;;;0.00;0.00;;;;;25.41;45.76;101987.91;6087940;23;45368;-80
2021/08/13 10:32:56;;;;;;;;;1.00;1.00;;;;;25.17;45.90;101942.53;6087893;23;53624;-79
2021/08/13 10:35:26;;;;;;;;;5.25;1.25;;;;;25.54;45.99;101996.38;6088894;23;45452;-80
2021/08/13 10:37:52;;;;;;;;;0.00;0.00;;;;;25.53;46.04;101991.97;6086356;23;45355;-79
2021/08/13 10:40:18;;;;;;;;;2.00;0.00;;;;;25.43;45.67;101989.63;6088661;23;45493;-80
2021/08/13 10:42:47;;;;;;;;;1.00;0.00;;;;;25.32;46.03;101982.94;6088066;23;46108;-80
2021/08/13 10:45:21;;;;;;;;;0.00;0.00;;;;;25.30;45.59;102001.63;6088416;23;45331;-79
2021/08/13 10:48:18;;;;;;;;;0.00;0.00;;;;;25.10;45.84;102002.28;6088087;23;45328;-78
2021/08/13 10:50:44;;;;;;;;;0.00;0.00;;;;;25.12;46.23;101997.78;6089103;23;45471;-79
2021/08/13 10:53:25;;;;;;;;;0.00;0.00;;;;;25.20;46.30;101997.53;6085753;23;46126;-80
2021/08/13 10:55:53;;;;;;;;;0.00;0.00;;;;;25.20;46.28;101971.75;6088602;23;45212;-78
2021/08/13 10:58:40;;;;;;;;;0.00;0.00;;;;;25.29;46.18;101992.75;6087009;23;45649;-80
2021/08/13 11:01:13;;;;;;;;;0.00;0.00;;;;;25.38;46.20;101988.91;6088059;23;45427;-78
2021/08/13 11:03:43;;;;;;;;;0.00;0.00;;;;;25.42;46.08;101993.19;6086784;23;45877;-79
2021/08/13 11:06:09;;;;;;;;;0.00;0.00;;;;;25.37;46.48;101981.84;6087425;23;45304;-78
2021/08/13 11:08:40;;;;;;;;;0.00;0.00;;;;;25.34;46.28;101995.28;6084579;23;45283;-86
2021/08/13 11:11:07;;;;;;;;;0.00;0.00;;;;;25.22;46.21;101988.56;6087093;23;45332;-78
2021/08/13 11:13:41;;;;;;;;;0.00;0.00;;;;;25.25;46.31;101993.78;6068583;23;47361;-78
2021/08/13 11:16:24;;;;;;;;;0.00;0.00;;;;;25.38;46.47;101986.25;6084359;23;45415;-78
2021/08/13 11:18:57;;;;;;;;;0.00;0.00;;;;;25.23;46.56;101944.16;6085460;23;45312;-78
2021/08/13 11:21:38;;;;;;;;;0.00;0.00;;;;;25.53;46.25;101984.84;6086783;23;45336;-78
2021/08/13 11:24:14;;;;;;;;;0.00;0.00;;;;;25.60;46.59;101988.19;6087103;23;45417;-84
2021/08/13 11:26:51;;;;;;;;;0.00;0.00;;;;;25.65;45.82;101993.34;6086414;23;45711;-77